Terminal Aerodrome Forecast
Issued by NWS

Home | Current Version | Previous Version | Text Only | Print | Product List | Glossary On
Versions: 1 2 3 4 5 6 7 8 9 10 11 12 13 14 15 16 17 18 19 20 21 22 23 24
631
FTUS43 KPAH 150520
TAFCGI
TAF
KCGI 150520Z 1506/1606 19003KT 4SM BR SCT015
      TEMPO 1508/1512 2SM BR
     FM151300 18005KT P6SM SCT040
     FM160000 16004KT P6SM SCT050 BKN150=

USA.gov is the U.S. government's official web portal to all federal, state and local government web resources and services.